Time;durP1;ratioP1;P1;durP2;ratioP2;P2;SDS_P1;SDS_P2;PMS_P1;PMS_P2;Temp;Humidity;BMP_temperature;BMP_pressure;BME280_temperature;BME280_humidity;BME280_pressure;Samples;Min_cycle;Max_cycle;Signal;HPM_P1;HPM_P2
2023/04/06 00:00:46;;;;;;;3.27;2.90;;;5.60;99.90;;;;;;4928235;29;20245;-68
2023/04/06 00:03:14;;;;;;;3.93;2.97;;;5.60;99.90;;;;;;4928460;29;20218;-69
2023/04/06 00:05:41;;;;;;;2.83;2.63;;;5.60;99.90;;;;;;4928282;29;20220;-70
2023/04/06 00:08:09;;;;;;;2.97;2.77;;;5.60;99.90;;;;;;4928336;29;20211;-70
2023/04/06 00:10:36;;;;;;;3.23;2.50;;;5.60;99.90;;;;;;4928214;29;20212;-70
2023/04/06 00:13:03;;;;;;;3.50;2.80;;;5.60;99.90;;;;;;4928574;29;20275;-70
2023/04/06 00:15:30;;;;;;;3.03;2.77;;;5.50;99.90;;;;;;4927986;29;20252;-70
2023/04/06 00:17:57;;;;;;;4.53;2.83;;;5.50;99.90;;;;;;4928382;29;20208;-70
2023/04/06 00:20:25;;;;;;;3.20;2.77;;;5.50;99.90;;;;;;4927860;29;20214;-70
2023/04/06 00:22:53;;;;;;;3.97;2.50;;;5.50;99.90;;;;;;4927748;29;20287;-70
2023/04/06 00:25:20;;;;;;;3.30;3.00;;;5.50;99.90;;;;;;4928094;29;20266;-70
2023/04/06 00:27:47;;;;;;;3.20;2.90;;;5.50;99.90;;;;;;4928034;29;20298;-69
2023/04/06 00:30:15;;;;;;;3.00;2.67;;;5.40;99.90;;;;;;4927666;29;20678;-69
2023/04/06 00:32:42;;;;;;;4.03;3.00;;;5.40;99.90;;;;;;4927655;29;20712;-69
2023/04/06 00:35:10;;;;;;;3.30;3.10;;;5.40;99.90;;;;;;4934918;29;20290;-69
2023/04/06 00:37:38;;;;;;;3.50;2.70;;;5.40;99.90;;;;;;4946729;28;20211;-69
2023/04/06 00:40:06;;;;;;;3.17;2.93;;;5.30;99.90;;;;;;4931805;28;20215;-69
2023/04/06 00:42:33;;;;;;;3.00;2.80;;;5.30;99.90;;;;;;4927841;29;20250;-69
2023/04/06 00:45:02;;;;;;;2.90;2.57;;;5.30;99.90;;;;;;4927944;29;20219;-69
2023/04/06 00:47:29;;;;;;;3.07;2.80;;;5.30;99.90;;;;;;4927592;29;20215;-68
2023/04/06 00:49:56;;;;;;;3.60;3.17;;;5.20;99.90;;;;;;4927743;29;20902;-68
2023/04/06 00:52:23;;;;;;;3.13;2.70;;;5.20;99.90;;;;;;4927710;29;20212;-68
2023/04/06 00:54:52;;;;;;;2.93;2.73;;;5.10;99.90;;;;;;4927294;29;20301;-68
2023/04/06 00:57:19;;;;;;;3.20;2.90;;;5.00;99.90;;;;;;4927616;29;20275;-68
2023/04/06 00:59:47;;;;;;;3.37;3.07;;;5.00;99.90;;;;;;4916901;29;20212;-68
2023/04/06 01:02:14;;;;;;;3.27;3.00;;;5.00;99.90;;;;;;4912670;29;20284;-68
2023/04/06 01:04:41;;;;;;;3.17;2.90;;;5.00;99.90;;;;;;4912205;29;20276;-68
2023/04/06 01:07:08;;;;;;;3.60;3.00;;;5.00;99.90;;;;;;4929819;29;20208;-69
2023/04/06 01:09:35;;;;;;;2.73;2.53;;;4.90;99.90;;;;;;4930880;29;20287;-70
2023/04/06 01:12:04;;;;;;;3.63;3.10;;;4.90;99.90;;;;;;4930837;29;20264;-70
2023/04/06 01:14:31;;;;;;;3.17;2.70;;;4.90;99.90;;;;;;4939102;29;20231;-69
2023/04/06 01:17:00;;;;;;;3.37;3.00;;;4.90;99.90;;;;;;4940839;28;20295;-69
2023/04/06 01:19:27;;;;;;;3.80;2.67;;;4.90;99.90;;;;;;4930150;29;20268;-68
2023/04/06 01:21:54;;;;;;;3.73;2.90;;;4.90;99.90;;;;;;4930709;29;20241;-69
2023/04/06 01:24:23;;;;;;;3.20;2.77;;;4.90;99.90;;;;;;4930952;29;21003;-68
2023/04/06 01:26:50;;;;;;;2.57;2.40;;;4.90;99.90;;;;;;4931025;29;20283;-69
2023/04/06 01:29:17;;;;;;;3.50;2.90;;;4.90;99.90;;;;;;4930863;29;20750;-70
2023/04/06 01:31:44;;;;;;;4.13;2.83;;;4.90;99.90;;;;;;4938034;29;20219;-69
2023/04/06 01:34:11;;;;;;;3.43;3.13;;;4.80;99.90;;;;;;4933875;28;20986;-69
2023/04/06 01:36:38;;;;;;;2.90;2.70;;;4.80;99.90;;;;;;4931279;29;20207;-69
2023/04/06 01:39:05;;;;;;;3.30;2.50;;;4.80;99.90;;;;;;4930752;29;21008;-70
2023/04/06 01:41:33;;;;;;;3.30;2.80;;;4.80;99.90;;;;;;4930513;29;20204;-69
2023/04/06 01:44:00;;;;;;;3.17;2.70;;;4.70;99.90;;;;;;4911782;29;20209;-69
2023/04/06 01:46:27;;;;;;;3.00;2.73;;;4.70;99.90;;;;;;4918735;29;20228;-69
2023/04/06 01:48:54;;;;;;;2.93;2.70;;;4.60;99.90;;;;;;4930116;29;20679;-69
2023/04/06 01:51:21;;;;;;;3.00;2.80;;;4.60;99.90;;;;;;4930292;29;20211;-70
2023/04/06 01:53:49;;;;;;;4.17;2.67;;;4.50;99.90;;;;;;4929798;29;20205;-70
2023/04/06 01:56:16;;;;;;;3.07;2.83;;;4.40;99.90;;;;;;4930404;29;20336;-69
2023/04/06 01:58:44;;;;;;;3.80;3.07;;;4.40;99.90;;;;;;4930042;29;20705;-70
2023/04/06 02:01:11;;;;;;;3.03;2.70;;;4.40;99.90;;;;;;4930132;29;20223;-69
2023/04/06 02:03:38;;;;;;;3.17;2.90;;;4.30;99.90;;;;;;4929821;29;20216;-70
2023/04/06 02:06:06;;;;;;;3.00;2.80;;;4.30;99.90;;;;;;4929849;29;20212;-70
2023/04/06 02:08:33;;;;;;;2.40;2.23;;;4.30;99.90;;;;;;4929953;29;20266;-70
2023/04/06 02:10:59;;;;;;;2.70;2.50;;;4.40;99.90;;;;;;4930009;29;20216;-69
2023/04/06 02:13:26;;;;;;;3.00;2.73;;;4.40;99.90;;;;;;4930230;29;20212;-70
2023/04/06 02:15:55;;;;;;;3.10;2.73;;;4.40;99.90;;;;;;4929579;29;20256;-69
2023/04/06 02:18:22;;;;;;;3.03;2.73;;;4.40;99.90;;;;;;4929583;29;20212;-68
2023/04/06 02:20:49;;;;;;;2.93;2.73;;;4.50;99.90;;;;;;4929362;29;20576;-70
2023/04/06 02:23:16;;;;;;;3.67;2.80;;;4.50;99.90;;;;;;4929929;29;20216;-69
2023/04/06 02:25:43;;;;;;;3.30;2.40;;;4.50;99.90;;;;;;4930119;29;20212;-70
2023/04/06 02:28:10;;;;;;;3.13;2.77;;;4.50;99.90;;;;;;4939864;29;20211;-69
2023/04/06 02:30:37;;;;;;;3.17;2.97;;;4.40;99.90;;;;;;4929710;29;20208;-69
2023/04/06 02:33:05;;;;;;;3.63;2.60;;;4.40;99.90;;;;;;4922425;29;20226;-69
2023/04/06 02:35:33;;;;;;;2.70;2.50;;;4.40;99.90;;;;;;4908558;29;20248;-69
2023/04/06 02:38:00;;;;;;;2.90;2.70;;;4.40;99.90;;;;;;4910302;29;20292;-69
2023/04/06 02:40:27;;;;;;;3.50;3.10;;;4.40;99.90;;;;;;4927984;29;20208;-69
2023/04/06 02:42:53;;;;;;;3.13;2.83;;;4.30;99.90;;;;;;4919206;29;20212;-69
2023/04/06 02:45:21;;;;;;;3.17;2.87;;;4.20;99.90;;;;;;4908360;29;20241;-69
2023/04/06 02:47:48;;;;;;;3.50;2.87;;;4.20;99.90;;;;;;4908593;29;20632;-69
2023/04/06 02:50:16;;;;;;;3.00;2.80;;;4.10;99.90;;;;;;4908729;29;20671;-69
2023/04/06 02:52:43;;;;;;;3.50;3.20;;;4.00;99.90;;;;;;4910337;29;20232;-69
2023/04/06 02:55:10;;;;;;;2.90;2.70;;;4.00;99.90;;;;;;4927860;29;20492;-69
2023/04/06 02:57:37;;;;;;;3.20;3.00;;;3.90;99.90;;;;;;4927669;29;20212;-69
2023/04/06 03:00:06;;;;;;;2.80;2.60;;;4.00;99.90;;;;;;4929252;29;20224;-69
2023/04/06 03:02:33;;;;;;;2.60;2.40;;;3.90;99.90;;;;;;4929381;29;20212;-69
2023/04/06 03:05:00;;;;;;;4.53;3.07;;;3.90;99.90;;;;;;4928590;29;20223;-69
2023/04/06 03:07:28;;;;;;;4.50;3.10;;;3.90;99.90;;;;;;4928037;29;20664;-69
2023/04/06 03:09:55;;;;;;;3.10;2.90;;;4.00;99.90;;;;;;4927824;29;20208;-69
2023/04/06 03:12:22;;;;;;;3.30;3.00;;;4.00;99.90;;;;;;4928909;29;20812;-69
2023/04/06 03:14:49;;;;;;;4.87;2.90;;;4.10;99.90;;;;;;4927974;29;20228;-69
2023/04/06 03:17:16;;;;;;;3.10;2.77;;;4.10;99.90;;;;;;4928055;29;20311;-69
2023/04/06 03:19:43;;;;;;;2.83;2.63;;;4.10;99.90;;;;;;4928926;29;20255;-68
2023/04/06 03:22:10;;;;;;;4.87;2.80;;;4.10;99.90;;;;;;4928031;29;20342;-69
2023/04/06 03:24:39;;;;;;;3.30;2.93;;;4.10;99.90;;;;;;4927806;29;20220;-69
2023/04/06 03:27:06;;;;;;;3.83;3.10;;;4.10;99.90;;;;;;4928180;29;20299;-69
2023/04/06 03:29:33;;;;;;;3.37;2.90;;;4.00;99.90;;;;;;4928759;29;20216;-69
2023/04/06 03:32:00;;;;;;;3.53;3.23;;;4.00;99.90;;;;;;4928709;29;20579;-69
2023/04/06 03:34:27;;;;;;;3.23;2.87;;;3.90;99.90;;;;;;4928557;29;20204;-68
2023/04/06 03:36:54;;;;;;;5.57;2.80;;;3.90;99.90;;;;;;4928557;29;20216;-68
2023/04/06 03:39:21;;;;;;;3.30;3.00;;;3.90;99.90;;;;;;4928271;29;20263;-68
2023/04/06 03:41:49;;;;;;;3.60;2.77;;;3.80;99.90;;;;;;4928357;29;20212;-69
2023/04/06 03:44:16;;;;;;;2.80;2.60;;;3.80;99.90;;;;;;4928461;29;20219;-69
2023/04/06 03:46:43;;;;;;;3.50;2.73;;;3.80;99.90;;;;;;4928648;29;20279;-68
2023/04/06 03:49:10;;;;;;;3.20;3.00;;;3.80;99.90;;;;;;4928012;29;20216;-68
2023/04/06 03:51:37;;;;;;;3.07;2.87;;;3.70;99.90;;;;;;4928476;29;20734;-68
2023/04/06 03:54:04;;;;;;;3.10;2.90;;;3.70;99.90;;;;;;4927837;29;20942;-69
2023/04/06 03:56:32;;;;;;;3.83;3.37;;;3.70;99.90;;;;;;4928343;29;20236;-69
2023/04/06 03:59:01;;;;;;;4.30;3.33;;;3.70;99.90;;;;;;4928076;29;20279;-68
2023/04/06 04:01:28;;;;;;;3.33;3.03;;;3.70;99.90;;;;;;4928113;29;20743;-68
2023/04/06 04:03:55;;;;;;;4.93;3.30;;;3.70;99.90;;;;;;4927925;29;20299;-69
2023/04/06 04:06:22;;;;;;;3.30;3.00;;;3.70;99.90;;;;;;4928600;29;20303;-68
2023/04/06 04:08:49;;;;;;;3.07;2.83;;;3.70;99.90;;;;;;4928003;29;20212;-68
2023/04/06 04:11:16;;;;;;;3.13;2.77;;;3.60;99.90;;;;;;4928483;29;20215;-69
2023/04/06 04:13:43;;;;;;;3.03;2.83;;;3.60;99.90;;;;;;4928450;29;20806;-68
2023/04/06 04:16:12;;;;;;;3.60;3.37;;;3.60;99.90;;;;;;4928037;29;20247;-69
2023/04/06 04:18:39;;;;;;;3.50;3.03;;;3.60;99.90;;;;;;4928330;29;20215;-68
2023/04/06 04:21:06;;;;;;;3.23;2.80;;;3.60;99.90;;;;;;4924361;29;20979;-68
2023/04/06 04:23:33;;;;;;;3.23;3.03;;;3.70;99.90;;;;;;4928218;29;20275;-69
2023/04/06 04:26:00;;;;;;;3.70;3.23;;;3.60;99.90;;;;;;4928237;29;20707;-68
2023/04/06 04:28:27;;;;;;;3.63;3.00;;;3.70;99.90;;;;;;4928371;29;20224;-68
2023/04/06 04:30:54;;;;;;;4.03;3.10;;;3.70;99.90;;;;;;4928218;29;20208;-69
2023/04/06 04:33:22;;;;;;;3.23;2.77;;;3.60;99.90;;;;;;4930181;29;20215;-68
2023/04/06 04:35:49;;;;;;;3.63;3.17;;;3.60;99.90;;;;;;4931837;29;20243;-69
2023/04/06 04:38:16;;;;;;;3.20;2.90;;;3.60;99.90;;;;;;4931960;29;20211;-69
2023/04/06 04:40:43;;;;;;;3.70;3.47;;;3.60;99.90;;;;;;4931451;29;20273;-68
2023/04/06 04:43:10;;;;;;;4.13;3.60;;;3.60;99.90;;;;;;4931275;29;20208;-68
2023/04/06 04:45:37;;;;;;;4.43;3.30;;;3.60;99.90;;;;;;4931652;29;20318;-68
2023/04/06 04:48:05;;;;;;;4.00;3.40;;;3.60;99.90;;;;;;4931548;29;20212;-68
2023/04/06 04:50:33;;;;;;;4.40;4.00;;;3.50;99.90;;;;;;4931429;29;20212;-69
2023/04/06 04:53:00;;;;;;;3.90;3.60;;;3.50;99.90;;;;;;4931708;29;20212;-69
2023/04/06 04:55:29;;;;;;;3.23;3.00;;;3.50;99.90;;;;;;4931779;29;20232;-69
2023/04/06 04:57:56;;;;;;;4.43;3.40;;;3.50;99.90;;;;;;4930746;29;20216;-68
2023/04/06 05:00:23;;;;;;;3.30;3.00;;;3.50;99.90;;;;;;4930916;29;20259;-69
2023/04/06 05:02:50;;;;;;;3.93;3.10;;;3.40;99.90;;;;;;4931529;29;20212;-69
2023/04/06 05:05:17;;;;;;;3.50;3.20;;;3.40;99.90;;;;;;4931417;29;20216;-69
2023/04/06 05:07:45;;;;;;;5.60;3.50;;;3.40;99.90;;;;;;4931619;29;20279;-69
2023/04/06 05:10:12;;;;;;;3.70;3.40;;;3.50;99.90;;;;;;4931149;29;20260;-69
2023/04/06 05:12:39;;;;;;;3.87;3.50;;;3.40;99.90;;;;;;4931584;29;20474;-69
2023/04/06 05:15:07;;;;;;;3.10;2.90;;;3.40;99.90;;;;;;4930668;29;20212;-69
2023/04/06 05:17:35;;;;;;;4.73;3.60;;;3.40;99.90;;;;;;4931740;29;20263;-69
2023/04/06 05:20:02;;;;;;;3.33;3.03;;;3.40;99.90;;;;;;4930722;29;20652;-69
2023/04/06 05:22:29;;;;;;;5.47;3.40;;;3.40;99.90;;;;;;4930951;29;20299;-69
2023/04/06 05:24:57;;;;;;;3.73;2.97;;;3.50;99.90;;;;;;4930763;29;20224;-69
2023/04/06 05:27:24;;;;;;;4.83;3.37;;;3.50;99.90;;;;;;4930538;29;20738;-69
2023/04/06 05:29:51;;;;;;;3.73;3.43;;;3.50;99.90;;;;;;4937468;29;20216;-69
2023/04/06 05:32:21;;;;;;;3.57;3.27;;;3.50;99.90;;;;;;4936023;28;21117;-69
2023/04/06 05:34:49;;;;;;;3.47;3.17;;;3.50;99.90;;;;;;4930705;28;20298;-69
2023/04/06 05:37:16;;;;;;;3.97;3.67;;;3.50;99.90;;;;;;4930228;29;20239;-69
2023/04/06 05:39:43;;;;;;;3.73;3.40;;;3.60;99.90;;;;;;4930471;29;20204;-69
2023/04/06 05:42:12;;;;;;;3.80;3.50;;;3.60;99.90;;;;;;4930132;29;20209;-69
2023/04/06 05:44:39;;;;;;;4.27;3.50;;;3.60;99.90;;;;;;4929968;29;20231;-69
2023/04/06 05:47:06;;;;;;;5.40;3.10;;;3.60;99.90;;;;;;4930392;29;20326;-69
2023/04/06 05:49:33;;;;;;;3.90;3.60;;;3.70;99.90;;;;;;4930663;29;20216;-69
2023/04/06 05:52:00;;;;;;;5.70;3.50;;;3.60;99.90;;;;;;4930353;29;20564;-69
2023/04/06 05:54:27;;;;;;;3.80;3.50;;;3.60;99.90;;;;;;4930833;29;20280;-69
2023/04/06 05:56:54;;;;;;;3.77;3.40;;;3.70;99.90;;;;;;4922282;29;20770;-69
2023/04/06 05:59:23;;;;;;;5.50;3.50;;;3.70;99.90;;;;;;4928732;29;20550;-69
2023/04/06 06:01:50;;;;;;;4.03;3.40;;;3.70;99.90;;;;;;4930421;29;20215;-69
2023/04/06 06:04:17;;;;;;;4.07;3.00;;;3.80;99.90;;;;;;4930112;29;20981;-69
2023/04/06 06:06:44;;;;;;;3.50;3.20;;;3.80;99.90;;;;;;4930331;29;20212;-69
2023/04/06 06:09:11;;;;;;;4.80;3.53;;;3.80;99.90;;;;;;4930012;29;21025;-69
2023/04/06 06:11:38;;;;;;;4.40;4.00;;;3.80;99.90;;;;;;4929907;29;20223;-69
2023/04/06 06:14:05;;;;;;;3.93;3.50;;;3.80;99.90;;;;;;4929613;29;20286;-69
2023/04/06 06:16:34;;;;;;;5.33;3.57;;;3.90;99.90;;;;;;4929521;29;20306;-69
2023/04/06 06:19:01;;;;;;;6.40;3.40;;;3.90;99.90;;;;;;4929823;29;20267;-69
2023/04/06 06:21:28;;;;;;;4.30;3.70;;;3.90;99.90;;;;;;4930111;29;20216;-69
2023/04/06 06:23:54;;;;;;;4.40;4.00;;;3.90;99.90;;;;;;4921468;29;20691;-69
2023/04/06 06:26:21;;;;;;;3.50;3.30;;;4.00;99.90;;;;;;4911081;29;20282;-69
2023/04/06 06:28:48;;;;;;;4.00;3.33;;;4.00;99.90;;;;;;4917513;29;20220;-69
2023/04/06 06:31:16;;;;;;;4.53;3.57;;;4.00;99.90;;;;;;4929738;29;20305;-69
2023/04/06 06:33:44;;;;;;;4.10;3.80;;;4.10;99.90;;;;;;4929509;29;20319;-69
2023/04/06 06:36:11;;;;;;;3.70;3.40;;;4.10;99.90;;;;;;4929932;29;20236;-69
2023/04/06 06:38:39;;;;;;;5.17;3.53;;;4.10;99.90;;;;;;4929829;29;20234;-69
2023/04/06 06:41:06;;;;;;;4.07;3.50;;;4.20;99.90;;;;;;4929306;29;20306;-69
2023/04/06 06:43:33;;;;;;;3.93;3.63;;;4.20;99.90;;;;;;4929598;29;20212;-69
2023/04/06 06:46:00;;;;;;;4.17;3.70;;;4.30;99.90;;;;;;4929200;29;20296;-69
2023/04/06 06:48:27;;;;;;;4.20;3.90;;;4.30;99.90;;;;;;4929238;29;20669;-69
2023/04/06 06:50:56;;;;;;;4.37;3.47;;;4.40;99.90;;;;;;4929229;29;20208;-69
2023/04/06 06:53:24;;;;;;;5.03;3.80;;;4.40;99.90;;;;;;4929072;29;20212;-69
2023/04/06 06:55:51;;;;;;;4.57;3.63;;;4.40;99.90;;;;;;4909236;29;20232;-70
2023/04/06 06:58:19;;;;;;;4.30;4.00;;;4.50;99.90;;;;;;4926068;29;20204;-69
2023/04/06 07:00:46;;;;;;;4.43;4.00;;;4.50;99.90;;;;;;4910291;29;20248;-69
2023/04/06 07:03:14;;;;;;;5.40;4.03;;;4.50;99.90;;;;;;4909975;29;20268;-69
2023/04/06 07:05:49;;;;;;;4.23;3.83;;;4.60;99.90;;;;;;4910035;29;20224;-69
2023/04/06 07:08:18;;;;;;;4.23;3.93;;;4.60;99.90;;;;;;4916190;29;20219;-69
2023/04/06 07:10:45;;;;;;;4.03;3.67;;;4.70;99.90;;;;;;4928903;29;20204;-69
2023/04/06 07:13:12;;;;;;;4.80;3.77;;;4.70;99.90;;;;;;4928987;29;20212;-69
2023/04/06 07:15:39;;;;;;;4.00;3.70;;;4.70;99.90;;;;;;4928558;29;20247;-69
2023/04/06 07:18:06;;;;;;;5.13;4.27;;;4.80;99.90;;;;;;4928444;29;20271;-69
2023/04/06 07:20:33;;;;;;;4.17;3.87;;;4.80;99.90;;;;;;4928431;29;20658;-69
2023/04/06 07:23:00;;;;;;;4.67;3.67;;;4.90;99.90;;;;;;4928570;29;20263;-69
2023/04/06 07:25:28;;;;;;;4.50;4.10;;;4.90;99.90;;;;;;4928491;29;20240;-69
2023/04/06 07:27:55;;;;;;;4.70;4.20;;;5.00;99.90;;;;;;4928522;29;20220;-69
2023/04/06 07:30:24;;;;;;;4.10;3.70;;;5.00;99.90;;;;;;4909700;29;20667;-69
2023/04/06 07:32:51;;;;;;;4.10;3.70;;;5.10;99.90;;;;;;4909298;29;20216;-69
2023/04/06 07:35:19;;;;;;;3.97;3.57;;;5.10;99.90;;;;;;4909459;29;20281;-69
2023/04/06 07:37:46;;;;;;;4.20;3.80;;;5.20;99.90;;;;;;4909467;29;20333;-69
2023/04/06 07:40:13;;;;;;;3.93;3.57;;;5.20;99.90;;;;;;4909351;29;20208;-69
2023/04/06 07:42:41;;;;;;;4.20;3.80;;;5.30;99.90;;;;;;4909295;29;20615;-69
2023/04/06 07:45:09;;;;;;;4.10;3.80;;;5.30;99.90;;;;;;4909118;29;20237;-70
2023/04/06 07:47:36;;;;;;;5.33;3.57;;;5.40;99.90;;;;;;4909252;29;20751;-69
2023/04/06 07:50:03;;;;;;;3.60;3.40;;;5.50;99.90;;;;;;4912155;29;20216;-69
2023/04/06 07:52:31;;;;;;;4.57;3.40;;;5.50;99.90;;;;;;4928300;29;20212;-69
2023/04/06 07:54:59;;;;;;;3.53;3.20;;;5.60;99.90;;;;;;4927973;29;20207;-69
2023/04/06 07:57:26;;;;;;;3.80;3.10;;;5.70;99.90;;;;;;4915989;29;20232;-70
2023/04/06 07:59:54;;;;;;;3.33;2.90;;;5.70;99.90;;;;;;4924292;29;20250;-69
2023/04/06 08:02:21;;;;;;;3.60;3.30;;;5.80;99.90;;;;;;4928137;29;20208;-69
2023/04/06 08:04:48;;;;;;;3.43;2.90;;;6.00;99.90;;;;;;4926911;29;20227;-69
2023/04/06 08:07:15;;;;;;;5.90;3.10;;;6.10;99.90;;;;;;4927884;29;20215;-69
2023/04/06 08:09:42;;;;;;;3.00;2.70;;;6.10;99.90;;;;;;4928252;29;20207;-70
2023/04/06 08:12:09;;;;;;;3.40;3.10;;;6.20;99.90;;;;;;4927819;29;20212;-69
2023/04/06 08:14:36;;;;;;;4.57;2.70;;;6.20;99.90;;;;;;4928004;29;20212;-69
2023/04/06 08:17:05;;;;;;;3.00;2.80;;;6.30;99.90;;;;;;4927505;29;20244;-69
2023/04/06 08:19:32;;;;;;;2.60;2.40;;;6.30;99.90;;;;;;4926075;29;20283;-69
2023/04/06 08:21:59;;;;;;;3.00;2.40;;;6.40;99.90;;;;;;4909122;29;20712;-69
2023/04/06 08:24:26;;;;;;;2.23;2.10;;;6.50;99.90;;;;;;4927384;29;20216;-69
2023/04/06 08:26:54;;;;;;;1.97;1.70;;;6.50;99.90;;;;;;4928036;29;20216;-69
2023/04/06 08:29:21;;;;;;;2.83;1.80;;;6.50;99.90;;;;;;4928428;29;20211;-69
2023/04/06 08:31:48;;;;;;;2.17;2.03;;;6.60;99.90;;;;;;4927845;29;20212;-69
2023/04/06 08:34:16;;;;;;;2.10;1.90;;;6.60;99.90;;;;;;4927873;29;20216;-69
2023/04/06 08:36:43;;;;;;;2.50;1.60;;;6.70;99.90;;;;;;4928011;29;20235;-69
2023/04/06 08:39:10;;;;;;;3.83;1.80;;;6.80;99.90;;;;;;4927617;29;20222;-69
2023/04/06 08:41:37;;;;;;;1.73;1.63;;;6.90;99.90;;;;;;4928009;29;20587;-69
2023/04/06 08:44:04;;;;;;;1.77;1.60;;;6.90;99.90;;;;;;4927717;29;20257;-69
2023/04/06 08:46:32;;;;;;;3.53;2.07;;;7.00;99.90;;;;;;4927870;29;20263;-69
2023/04/06 08:49:00;;;;;;;1.90;1.80;;;7.00;99.90;;;;;;4927616;29;20208;-69
2023/04/06 08:51:30;;;;;;;3.47;2.00;;;7.10;99.90;;;;;;4927949;29;20208;-69
2023/04/06 08:53:58;;;;;;;1.90;1.80;;;7.10;99.90;;;;;;4927743;29;20208;-69
2023/04/06 08:56:26;;;;;;;2.00;1.80;;;7.20;99.90;;;;;;4927867;29;20209;-69
2023/04/06 08:58:53;;;;;;;1.63;1.53;;;7.30;99.90;;;;;;4927754;29;20287;-70
2023/04/06 09:01:23;;;;;;;1.63;1.50;;;7.30;99.90;;;;;;4934886;29;20212;-69
2023/04/06 09:03:52;;;;;;;1.87;1.53;;;7.40;99.90;;;;;;4946833;28;20207;-69
2023/04/06 09:06:19;;;;;;;2.23;1.53;;;7.40;99.90;;;;;;4947022;28;20228;-69
2023/04/06 09:08:48;;;;;;;2.20;1.70;;;7.60;99.90;;;;;;4946846;28;20203;-69
2023/04/06 09:11:16;;;;;;;1.63;1.53;;;7.60;99.90;;;;;;4946985;28;20212;-70
2023/04/06 09:13:48;;;;;;;2.07;1.73;;;7.60;99.90;;;;;;4930034;28;20220;-69
2023/04/06 09:16:15;;;;;;;1.63;1.53;;;7.70;99.90;;;;;;4922137;29;20259;-70
2023/04/06 09:18:43;;;;;;;1.83;1.73;;;7.70;99.90;;;;;;4909005;29;20560;-69
2023/04/06 09:21:11;;;;;;;1.70;1.60;;;7.80;99.90;;;;;;4912228;29;20209;-69
2023/04/06 09:23:39;;;;;;;1.63;1.53;;;7.80;99.90;;;;;;4923442;29;20667;-69
2023/04/06 09:26:12;;;;;;;2.93;1.67;;;7.90;99.90;;;;;;4930559;29;20212;-69
2023/04/06 09:28:43;;;;;;;2.10;1.50;;;8.00;99.80;;;;;;4931014;29;20280;-70
2023/04/06 09:31:11;;;;;;;1.87;1.73;;;8.00;99.30;;;;;;4930625;29;20623;-70
2023/04/06 09:33:39;;;;;;;2.67;1.63;;;8.00;99.20;;;;;;4930889;29;20283;-70
2023/04/06 09:36:09;;;;;;;1.70;1.60;;;8.00;99.40;;;;;;4930797;29;20266;-70
2023/04/06 09:38:37;;;;;;;1.70;1.60;;;8.10;99.60;;;;;;4931001;29;20242;-69
2023/04/06 09:41:04;;;;;;;3.00;1.93;;;8.20;99.40;;;;;;4930514;29;20212;-69
2023/04/06 09:43:33;;;;;;;2.10;1.87;;;8.20;99.50;;;;;;4930153;29;20784;-69
2023/04/06 09:46:02;;;;;;;1.77;1.67;;;8.30;99.20;;;;;;4930749;29;20219;-70
2023/04/06 09:48:34;;;;;;;2.30;2.10;;;8.30;98.50;;;;;;4930363;29;20753;-69
2023/04/06 09:51:05;;;;;;;2.33;2.13;;;8.40;97.80;;;;;;4930616;29;20200;-69
2023/04/06 09:53:36;;;;;;;1.90;1.80;;;8.50;97.50;;;;;;4930591;29;20200;-69
2023/04/06 09:56:07;;;;;;;1.90;1.80;;;8.60;97.10;;;;;;4928865;29;20220;-70
2023/04/06 09:58:41;;;;;;;1.90;1.67;;;8.70;97.10;;;;;;4929622;29;20247;-70
2023/04/06 10:01:11;;;;;;;1.83;1.73;;;8.80;97.20;;;;;;4930093;29;20201;-70
2023/04/06 10:03:45;;;;;;;1.87;1.77;;;8.90;97.30;;;;;;4930183;29;20213;-69
2023/04/06 10:06:13;;;;;;;1.53;1.50;;;8.90;97.10;;;;;;4930320;29;20207;-70
2023/04/06 10:08:42;;;;;;;1.70;1.60;;;9.00;95.70;;;;;;4929845;29;20623;-70
2023/04/06 10:11:10;;;;;;;1.87;1.70;;;9.00;95.80;;;;;;4930061;29;20216;-70
2023/04/06 10:13:38;;;;;;;1.60;1.50;;;9.20;96.30;;;;;;4916043;29;20866;-69
2023/04/06 10:16:07;;;;;;;2.00;1.80;;;9.30;96.40;;;;;;4910563;29;21121;-70
2023/04/06 10:18:34;;;;;;;3.33;1.90;;;9.30;95.60;;;;;;4910770;29;20382;-70
2023/04/06 10:21:05;;;;;;;1.77;1.67;;;9.40;94.80;;;;;;4911247;29;20213;-70
2023/04/06 10:23:35;;;;;;;1.90;1.80;;;9.40;94.60;;;;;;4921723;29;20200;-70
2023/04/06 10:26:03;;;;;;;1.90;1.80;;;9.40;95.10;;;;;;4929940;29;20629;-70
2023/04/06 10:28:34;;;;;;;1.90;1.80;;;9.50;95.20;;;;;;4929709;29;20295;-70
2023/04/06 10:31:05;;;;;;;1.97;1.87;;;9.50;95.00;;;;;;4929347;29;20197;-70
2023/04/06 10:33:32;;;;;;;2.27;2.07;;;9.40;95.00;;;;;;4930005;29;20204;-70
2023/04/06 10:36:09;;;;;;;2.00;1.90;;;9.50;96.10;;;;;;4929416;29;20599;-70
2023/04/06 10:38:38;;;;;;;2.53;1.90;;;9.60;95.60;;;;;;4928975;29;20283;-70
2023/04/06 10:41:05;;;;;;;2.10;2.00;;;9.80;95.20;;;;;;4928915;29;20663;-70
2023/04/06 10:43:36;;;;;;;3.23;2.00;;;9.90;93.70;;;;;;4928910;29;20232;-70
2023/04/06 10:46:06;;;;;;;2.40;2.23;;;10.00;92.60;;;;;;4929452;29;20197;-70
2023/04/06 10:48:41;;;;;;;2.10;1.93;;;10.10;92.60;;;;;;4929026;29;20220;-70
2023/04/06 10:51:12;;;;;;;2.20;2.00;;;10.20;92.00;;;;;;4929079;29;20208;-70
2023/04/06 10:53:40;;;;;;;2.07;1.93;;;10.20;91.40;;;;;;4934612;29;20226;-70
2023/04/06 10:56:12;;;;;;;2.10;2.00;;;10.30;91.30;;;;;;4946210;28;20741;-70
2023/04/06 10:58:44;;;;;;;1.83;1.73;;;10.40;90.70;;;;;;4929249;29;20236;-70
2023/04/06 11:01:15;;;;;;;3.07;2.00;;;10.50;90.90;;;;;;4929399;29;20295;-70
2023/04/06 11:03:45;;;;;;;2.00;1.90;;;10.60;91.50;;;;;;4929013;29;20244;-70
2023/04/06 11:06:19;;;;;;;2.27;2.00;;;10.70;91.90;;;;;;4929024;29;20225;-70
2023/04/06 11:08:46;;;;;;;2.20;1.90;;;10.80;91.80;;;;;;4929205;29;20204;-70
2023/04/06 11:11:15;;;;;;;2.30;2.10;;;10.90;91.50;;;;;;4929419;29;20692;-70
2023/04/06 11:13:45;;;;;;;2.67;2.10;;;10.90;91.20;;;;;;4928797;29;20570;-70
2023/04/06 11:16:18;;;;;;;2.63;2.53;;;11.00;91.10;;;;;;4928712;29;20243;-70
2023/04/06 11:18:52;;;;;;;2.43;2.13;;;11.10;89.60;;;;;;4928922;29;20232;-70
2023/04/06 11:21:19;;;;;;;2.30;2.10;;;11.20;90.80;;;;;;4928434;29;20219;-70
2023/04/06 11:23:46;;;;;;;2.10;2.00;;;11.40;90.00;;;;;;4928677;29;20216;-70
2023/04/06 11:26:14;;;;;;;2.20;2.00;;;11.50;90.40;;;;;;4929000;29;20216;-70
2023/04/06 11:28:42;;;;;;;2.10;2.00;;;11.50;90.30;;;;;;4928585;29;20231;-70
2023/04/06 11:31:10;;;;;;;3.87;2.27;;;11.60;90.40;;;;;;4928799;29;20223;-70
2023/04/06 11:33:39;;;;;;;2.40;2.20;;;11.70;90.40;;;;;;4928668;29;20220;-70
2023/04/06 11:36:07;;;;;;;3.80;2.20;;;11.70;91.10;;;;;;4928821;29;20645;-70
2023/04/06 11:38:34;;;;;;;2.30;2.07;;;11.80;89.70;;;;;;4928770;29;20291;-70
2023/04/06 11:41:02;;;;;;;1.97;1.87;;;11.80;88.30;;;;;;4928103;29;20223;-70
2023/04/06 11:43:30;;;;;;;2.57;2.30;;;11.80;88.30;;;;;;4928392;29;20224;-71
2023/04/06 11:46:03;;;;;;;2.00;1.90;;;11.90;87.00;;;;;;4928601;29;20208;-70
2023/04/06 11:48:31;;;;;;;2.47;2.27;;;12.00;87.10;;;;;;4928185;29;20204;-70
2023/04/06 11:51:01;;;;;;;2.50;2.30;;;12.10;87.70;;;;;;4928045;29;20286;-70
2023/04/06 11:53:28;;;;;;;2.20;2.10;;;12.30;87.10;;;;;;4928486;29;20240;-70
2023/04/06 11:55:55;;;;;;;2.20;2.10;;;12.30;88.60;;;;;;4928016;29;20248;-70
2023/04/06 11:58:22;;;;;;;2.20;2.00;;;12.40;89.10;;;;;;4928120;29;20239;-70
2023/04/06 12:00:49;;;;;;;2.70;2.23;;;12.50;91.00;;;;;;4928353;29;20211;-70
2023/04/06 12:03:16;;;;;;;2.23;2.03;;;12.70;88.60;;;;;;4928046;29;20734;-70
2023/04/06 12:05:45;;;;;;;2.00;1.90;;;12.70;87.80;;;;;;4928093;29;20285;-70
2023/04/06 12:08:13;;;;;;;5.23;2.40;;;12.70;88.20;;;;;;4928348;29;20216;-70
2023/04/06 12:10:40;;;;;;;2.60;2.40;;;12.70;88.00;;;;;;4928259;29;20219;-70
2023/04/06 12:13:07;;;;;;;2.40;2.20;;;12.70;86.80;;;;;;4928038;29;20212;-70
2023/04/06 12:15:34;;;;;;;2.50;2.20;;;12.80;86.80;;;;;;4927731;29;20277;-70
2023/04/06 12:18:01;;;;;;;2.27;2.17;;;12.90;85.50;;;;;;4927952;29;20282;-70
2023/04/06 12:20:28;;;;;;;2.80;2.17;;;12.80;83.30;;;;;;4927893;29;20209;-70
2023/04/06 12:22:55;;;;;;;2.17;2.07;;;12.90;86.30;;;;;;4927913;29;20622;-70
2023/04/06 12:25:23;;;;;;;2.20;2.10;;;13.00;84.50;;;;;;4928130;29;20631;-70
2023/04/06 12:27:50;;;;;;;2.40;2.20;;;13.10;86.00;;;;;;4927415;29;20749;-70
2023/04/06 12:30:17;;;;;;;2.33;2.00;;;13.10;84.80;;;;;;4927980;29;20218;-70
2023/04/06 12:32:44;;;;;;;2.20;2.10;;;13.10;83.90;;;;;;4927532;29;20282;-70
2023/04/06 12:35:15;;;;;;;2.33;2.23;;;13.10;84.00;;;;;;4927897;29;20628;-70
2023/04/06 12:37:42;;;;;;;2.27;2.10;;;13.10;84.30;;;;;;4927884;29;20315;-69
2023/04/06 12:40:11;;;;;;;2.07;1.90;;;13.10;86.10;;;;;;4927477;29;20693;-69
2023/04/06 12:42:41;;;;;;;2.27;2.07;;;13.20;86.80;;;;;;4927990;29;20219;-69
2023/04/06 12:45:09;;;;;;;3.17;2.27;;;13.40;85.50;;;;;;4927554;29;20302;-70
2023/04/06 12:47:37;;;;;;;3.07;2.07;;;13.50;87.40;;;;;;4911188;29;20267;-70
2023/04/06 12:50:05;;;;;;;2.37;2.10;;;13.60;84.90;;;;;;4908349;29;20212;-70
2023/04/06 12:52:34;;;;;;;3.87;2.60;;;13.60;85.80;;;;;;4908928;29;20639;-70
2023/04/06 12:55:02;;;;;;;2.37;2.17;;;13.60;86.70;;;;;;4911097;29;20607;-70
2023/04/06 12:57:29;;;;;;;3.27;2.33;;;13.60;87.20;;;;;;4918746;29;20212;-70